sensor_id;sensor_type;location;lat;lon;timestamp;P1;durP1;ratioP1;P2;durP2;ratioP2
2638;SDS011;1329;51.384;7.122;2022-08-21T00:01:31;5.80;;;5.20;;
2638;SDS011;1329;51.384;7.122;2022-08-21T00:04:03;6.70;;;5.28;;
2638;SDS011;1329;51.384;7.122;2022-08-21T00:06:32;6.57;;;5.05;;
2638;SDS011;1329;51.384;7.122;2022-08-21T00:09:00;5.47;;;4.93;;
2638;SDS011;1329;51.384;7.122;2022-08-21T00:11:28;5.50;;;5.00;;
2638;SDS011;1329;51.384;7.122;2022-08-21T00:13:55;6.00;;;5.25;;
2638;SDS011;1329;51.384;7.122;2022-08-21T00:16:22;5.03;;;4.43;;
2638;SDS011;1329;51.384;7.122;2022-08-21T00:18:49;4.88;;;4.40;;
2638;SDS011;1329;51.384;7.122;2022-08-21T00:21:16;5.57;;;4.47;;
2638;SDS011;1329;51.384;7.122;2022-08-21T00:23:45;5.28;;;4.78;;
2638;SDS011;1329;51.384;7.122;2022-08-21T00:26:13;6.05;;;4.95;;
2638;SDS011;1329;51.384;7.122;2022-08-21T00:28:40;5.68;;;5.18;;
2638;SDS011;1329;51.384;7.122;2022-08-21T00:31:07;6.72;;;4.85;;
2638;SDS011;1329;51.384;7.122;2022-08-21T00:33:35;7.65;;;4.60;;
2638;SDS011;1329;51.384;7.122;2022-08-21T00:36:02;6.18;;;4.57;;
2638;SDS011;1329;51.384;7.122;2022-08-21T00:38:30;5.22;;;4.60;;
2638;SDS011;1329;51.384;7.122;2022-08-21T00:41:00;6.72;;;4.95;;
2638;SDS011;1329;51.384;7.122;2022-08-21T00:43:32;5.22;;;4.70;;
2638;SDS011;1329;51.384;7.122;2022-08-21T00:46:02;6.05;;;4.85;;
2638;SDS011;1329;51.384;7.122;2022-08-21T00:48:31;5.05;;;4.65;;
2638;SDS011;1329;51.384;7.122;2022-08-21T00:51:03;5.78;;;4.55;;
2638;SDS011;1329;51.384;7.122;2022-08-21T00:53:34;5.43;;;4.90;;
2638;SDS011;1329;51.384;7.122;2022-08-21T00:56:06;5.03;;;4.63;;
2638;SDS011;1329;51.384;7.122;2022-08-21T00:58:35;5.13;;;4.63;;
2638;SDS011;1329;51.384;7.122;2022-08-21T01:01:06;5.28;;;4.78;;
2638;SDS011;1329;51.384;7.122;2022-08-21T01:03:34;5.63;;;4.75;;
2638;SDS011;1329;51.384;7.122;2022-08-21T01:06:02;5.35;;;4.82;;
2638;SDS011;1329;51.384;7.122;2022-08-21T01:08:31;5.38;;;4.85;;
2638;SDS011;1329;51.384;7.122;2022-08-21T01:10:59;6.18;;;5.05;;
2638;SDS011;1329;51.384;7.122;2022-08-21T01:13:29;4.85;;;4.45;;
2638;SDS011;1329;51.384;7.122;2022-08-21T01:15:59;5.13;;;4.63;;
2638;SDS011;1329;51.384;7.122;2022-08-21T01:18:29;5.63;;;4.13;;
2638;SDS011;1329;51.384;7.122;2022-08-21T01:21:08;5.88;;;5.10;;
2638;SDS011;1329;51.384;7.122;2022-08-21T01:23:39;5.78;;;5.05;;
2638;SDS011;1329;51.384;7.122;2022-08-21T01:26:09;5.82;;;4.55;;
2638;SDS011;1329;51.384;7.122;2022-08-21T01:31:24;5.25;;;4.75;;
2638;SDS011;1329;51.384;7.122;2022-08-21T01:33:53;4.53;;;4.13;;
2638;SDS011;1329;51.384;7.122;2022-08-21T01:36:23;5.45;;;4.82;;
2638;SDS011;1329;51.384;7.122;2022-08-21T01:38:50;5.13;;;4.60;;
2638;SDS011;1329;51.384;7.122;2022-08-21T01:41:17;5.45;;;4.88;;
2638;SDS011;1329;51.384;7.122;2022-08-21T01:43:45;5.05;;;4.60;;
2638;SDS011;1329;51.384;7.122;2022-08-21T01:46:12;5.07;;;4.43;;
2638;SDS011;1329;51.384;7.122;2022-08-21T01:48:40;5.40;;;4.65;;
2638;SDS011;1329;51.384;7.122;2022-08-21T01:51:08;4.95;;;4.45;;
2638;SDS011;1329;51.384;7.122;2022-08-21T01:53:36;5.40;;;4.20;;
2638;SDS011;1329;51.384;7.122;2022-08-21T01:56:04;4.93;;;4.53;;
2638;SDS011;1329;51.384;7.122;2022-08-21T01:58:33;5.85;;;4.50;;
2638;SDS011;1329;51.384;7.122;2022-08-21T02:01:01;4.72;;;4.32;;
2638;SDS011;1329;51.384;7.122;2022-08-21T02:03:29;5.25;;;4.75;;
2638;SDS011;1329;51.384;7.122;2022-08-21T02:05:56;5.28;;;4.82;;
2638;SDS011;1329;51.384;7.122;2022-08-21T02:08:24;5.22;;;4.38;;
2638;SDS011;1329;51.384;7.122;2022-08-21T02:10:52;5.30;;;4.78;;
2638;SDS011;1329;51.384;7.122;2022-08-21T02:13:20;4.80;;;4.35;;
2638;SDS011;1329;51.384;7.122;2022-08-21T02:15:47;5.32;;;4.57;;
2638;SDS011;1329;51.384;7.122;2022-08-21T02:18:15;4.70;;;4.30;;
2638;SDS011;1329;51.384;7.122;2022-08-21T02:20:44;6.50;;;4.72;;
2638;SDS011;1329;51.384;7.122;2022-08-21T02:23:14;4.55;;;4.15;;
2638;SDS011;1329;51.384;7.122;2022-08-21T02:25:42;5.05;;;4.65;;
2638;SDS011;1329;51.384;7.122;2022-08-21T02:28:12;5.03;;;4.45;;
2638;SDS011;1329;51.384;7.122;2022-08-21T02:30:42;4.80;;;4.40;;
2638;SDS011;1329;51.384;7.122;2022-08-21T02:33:12;5.28;;;4.47;;
2638;SDS011;1329;51.384;7.122;2022-08-21T02:35:40;4.93;;;4.40;;
2638;SDS011;1329;51.384;7.122;2022-08-21T02:38:11;5.10;;;4.60;;
2638;SDS011;1329;51.384;7.122;2022-08-21T02:40:41;5.20;;;4.45;;
2638;SDS011;1329;51.384;7.122;2022-08-21T02:43:14;5.10;;;4.57;;
2638;SDS011;1329;51.384;7.122;2022-08-21T02:45:43;5.13;;;4.68;;
2638;SDS011;1329;51.384;7.122;2022-08-21T02:48:12;5.20;;;4.70;;
2638;SDS011;1329;51.384;7.122;2022-08-21T02:50:44;5.72;;;4.30;;
2638;SDS011;1329;51.384;7.122;2022-08-21T02:53:18;4.72;;;4.30;;
2638;SDS011;1329;51.384;7.122;2022-08-21T02:55:47;4.88;;;4.45;;
2638;SDS011;1329;51.384;7.122;2022-08-21T02:58:20;6.22;;;4.85;;
2638;SDS011;1329;51.384;7.122;2022-08-21T03:00:49;5.10;;;4.65;;
2638;SDS011;1329;51.384;7.122;2022-08-21T03:03:17;4.97;;;4.40;;
2638;SDS011;1329;51.384;7.122;2022-08-21T03:05:46;5.38;;;4.93;;
2638;SDS011;1329;51.384;7.122;2022-08-21T03:08:14;5.13;;;4.55;;
2638;SDS011;1329;51.384;7.122;2022-08-21T03:10:43;5.78;;;4.65;;
2638;SDS011;1329;51.384;7.122;2022-08-21T03:13:13;5.78;;;5.25;;
2638;SDS011;1329;51.384;7.122;2022-08-21T03:15:43;5.50;;;4.78;;
2638;SDS011;1329;51.384;7.122;2022-08-21T03:18:11;4.63;;;4.22;;
2638;SDS011;1329;51.384;7.122;2022-08-21T03:20:39;6.43;;;5.03;;
2638;SDS011;1329;51.384;7.122;2022-08-21T03:23:08;4.82;;;4.28;;
2638;SDS011;1329;51.384;7.122;2022-08-21T03:25:35;6.32;;;4.93;;
2638;SDS011;1329;51.384;7.122;2022-08-21T03:28:03;5.60;;;5.00;;
2638;SDS011;1329;51.384;7.122;2022-08-21T03:30:34;5.47;;;4.72;;
2638;SDS011;1329;51.384;7.122;2022-08-21T03:33:03;5.15;;;4.70;;
2638;SDS011;1329;51.384;7.122;2022-08-21T03:35:30;5.68;;;4.80;;
2638;SDS011;1329;51.384;7.122;2022-08-21T03:37:58;5.28;;;4.78;;
2638;SDS011;1329;51.384;7.122;2022-08-21T03:40:25;5.53;;;4.78;;
2638;SDS011;1329;51.384;7.122;2022-08-21T03:42:52;6.50;;;4.75;;
2638;SDS011;1329;51.384;7.122;2022-08-21T03:45:20;5.03;;;4.53;;
2638;SDS011;1329;51.384;7.122;2022-08-21T03:47:51;5.07;;;4.57;;
2638;SDS011;1329;51.384;7.122;2022-08-21T03:50:24;4.97;;;4.57;;
2638;SDS011;1329;51.384;7.122;2022-08-21T03:52:53;6.95;;;4.60;;
2638;SDS011;1329;51.384;7.122;2022-08-21T03:55:20;5.38;;;4.88;;
2638;SDS011;1329;51.384;7.122;2022-08-21T03:57:48;6.10;;;5.60;;
2638;SDS011;1329;51.384;7.122;2022-08-21T04:00:16;5.63;;;4.88;;
2638;SDS011;1329;51.384;7.122;2022-08-21T04:02:45;7.05;;;4.88;;
2638;SDS011;1329;51.384;7.122;2022-08-21T04:05:14;5.18;;;3.95;;
2638;SDS011;1329;51.384;7.122;2022-08-21T04:07:53;4.68;;;4.25;;
2638;SDS011;1329;51.384;7.122;2022-08-21T04:10:22;5.85;;;4.75;;
2638;SDS011;1329;51.384;7.122;2022-08-21T04:12:51;5.43;;;4.93;;
2638;SDS011;1329;51.384;7.122;2022-08-21T04:15:22;5.47;;;4.68;;
2638;SDS011;1329;51.384;7.122;2022-08-21T04:17:51;5.75;;;5.15;;
2638;SDS011;1329;51.384;7.122;2022-08-21T04:20:22;5.35;;;4.85;;
2638;SDS011;1329;51.384;7.122;2022-08-21T04:22:50;5.90;;;5.32;;
2638;SDS011;1329;51.384;7.122;2022-08-21T04:25:20;5.50;;;4.95;;
2638;SDS011;1329;51.384;7.122;2022-08-21T04:27:50;5.88;;;4.70;;
2638;SDS011;1329;51.384;7.122;2022-08-21T04:30:18;5.35;;;4.85;;
2638;SDS011;1329;51.384;7.122;2022-08-21T04:32:46;5.32;;;4.85;;
2638;SDS011;1329;51.384;7.122;2022-08-21T04:35:17;5.53;;;4.90;;
2638;SDS011;1329;51.384;7.122;2022-08-21T04:37:46;6.10;;;5.03;;
2638;SDS011;1329;51.384;7.122;2022-08-21T04:40:19;5.45;;;4.95;;
2638;SDS011;1329;51.384;7.122;2022-08-21T04:42:51;5.78;;;5.03;;
2638;SDS011;1329;51.384;7.122;2022-08-21T04:45:23;5.72;;;5.13;;
2638;SDS011;1329;51.384;7.122;2022-08-21T04:47:53;5.72;;;4.93;;
2638;SDS011;1329;51.384;7.122;2022-08-21T04:50:24;6.30;;;4.75;;
2638;SDS011;1329;51.384;7.122;2022-08-21T04:52:56;6.25;;;4.93;;
2638;SDS011;1329;51.384;7.122;2022-08-21T04:55:27;7.80;;;5.70;;
2638;SDS011;1329;51.384;7.122;2022-08-21T04:57:55;6.13;;;5.53;;
2638;SDS011;1329;51.384;7.122;2022-08-21T05:00:24;7.20;;;6.20;;
2638;SDS011;1329;51.384;7.122;2022-08-21T05:02:52;6.63;;;5.47;;
2638;SDS011;1329;51.384;7.122;2022-08-21T05:05:24;6.78;;;6.00;;
2638;SDS011;1329;51.384;7.122;2022-08-21T05:07:51;7.78;;;6.25;;
2638;SDS011;1329;51.384;7.122;2022-08-21T05:10:20;6.75;;;6.05;;
2638;SDS011;1329;51.384;7.122;2022-08-21T05:12:49;6.13;;;5.53;;
2638;SDS011;1329;51.384;7.122;2022-08-21T05:15:16;6.70;;;5.82;;
2638;SDS011;1329;51.384;7.122;2022-08-21T05:17:43;6.15;;;5.55;;
2638;SDS011;1329;51.384;7.122;2022-08-21T05:20:11;6.50;;;5.50;;
2638;SDS011;1329;51.384;7.122;2022-08-21T05:22:40;5.90;;;5.30;;
2638;SDS011;1329;51.384;7.122;2022-08-21T05:25:08;5.22;;;4.72;;
2638;SDS011;1329;51.384;7.122;2022-08-21T05:27:36;6.05;;;5.50;;
2638;SDS011;1329;51.384;7.122;2022-08-21T05:30:08;5.82;;;5.32;;
2638;SDS011;1329;51.384;7.122;2022-08-21T05:32:38;5.57;;;5.07;;
2638;SDS011;1329;51.384;7.122;2022-08-21T05:35:06;5.63;;;5.13;;
2638;SDS011;1329;51.384;7.122;2022-08-21T05:37:36;6.05;;;5.45;;
2638;SDS011;1329;51.384;7.122;2022-08-21T05:40:04;6.13;;;5.53;;
2638;SDS011;1329;51.384;7.122;2022-08-21T05:42:33;6.55;;;5.38;;
2638;SDS011;1329;51.384;7.122;2022-08-21T05:45:07;6.38;;;5.78;;
2638;SDS011;1329;51.384;7.122;2022-08-21T05:47:37;7.22;;;6.18;;
2638;SDS011;1329;51.384;7.122;2022-08-21T05:50:08;6.10;;;5.40;;
2638;SDS011;1329;51.384;7.122;2022-08-21T05:52:35;7.05;;;6.18;;
2638;SDS011;1329;51.384;7.122;2022-08-21T05:55:03;6.15;;;5.63;;
2638;SDS011;1329;51.384;7.122;2022-08-21T05:57:31;7.03;;;6.28;;
2638;SDS011;1329;51.384;7.122;2022-08-21T05:59:58;6.80;;;6.15;;
2638;SDS011;1329;51.384;7.122;2022-08-21T06:02:27;7.50;;;6.80;;
2638;SDS011;1329;51.384;7.122;2022-08-21T06:04:56;7.35;;;6.55;;
2638;SDS011;1329;51.384;7.122;2022-08-21T06:07:23;8.32;;;7.50;;
2638;SDS011;1329;51.384;7.122;2022-08-21T06:09:50;7.10;;;6.47;;
2638;SDS011;1329;51.384;7.122;2022-08-21T06:12:18;7.18;;;6.53;;
2638;SDS011;1329;51.384;7.122;2022-08-21T06:14:45;6.70;;;6.07;;
2638;SDS011;1329;51.384;7.122;2022-08-21T06:17:12;8.27;;;6.78;;
2638;SDS011;1329;51.384;7.122;2022-08-21T06:19:42;7.75;;;6.97;;
2638;SDS011;1329;51.384;7.122;2022-08-21T06:22:09;7.95;;;7.18;;
2638;SDS011;1329;51.384;7.122;2022-08-21T06:24:36;8.50;;;7.25;;
2638;SDS011;1329;51.384;7.122;2022-08-21T06:27:04;8.63;;;7.55;;
2638;SDS011;1329;51.384;7.122;2022-08-21T06:29:32;8.73;;;7.68;;
2638;SDS011;1329;51.384;7.122;2022-08-21T06:32:00;8.65;;;7.78;;
2638;SDS011;1329;51.384;7.122;2022-08-21T06:34:29;9.25;;;7.78;;
2638;SDS011;1329;51.384;7.122;2022-08-21T06:36:58;8.35;;;7.55;;
2638;SDS011;1329;51.384;7.122;2022-08-21T06:39:25;8.77;;;7.93;;
2638;SDS011;1329;51.384;7.122;2022-08-21T06:41:55;9.88;;;8.02;;
2638;SDS011;1329;51.384;7.122;2022-08-21T06:44:23;9.85;;;8.35;;
2638;SDS011;1329;51.384;7.122;2022-08-21T06:46:50;9.07;;;8.20;;
2638;SDS011;1329;51.384;7.122;2022-08-21T06:49:17;10.68;;;8.68;;
2638;SDS011;1329;51.384;7.122;2022-08-21T06:51:45;12.57;;;8.52;;
2638;SDS011;1329;51.384;7.122;2022-08-21T06:54:14;10.23;;;9.25;;
2638;SDS011;1329;51.384;7.122;2022-08-21T06:56:44;10.18;;;9.07;;
2638;SDS011;1329;51.384;7.122;2022-08-21T06:59:13;11.75;;;9.05;;
2638;SDS011;1329;51.384;7.122;2022-08-21T07:01:41;10.85;;;8.65;;
2638;SDS011;1329;51.384;7.122;2022-08-21T07:04:08;9.65;;;8.63;;
2638;SDS011;1329;51.384;7.122;2022-08-21T07:06:36;9.55;;;8.57;;
2638;SDS011;1329;51.384;7.122;2022-08-21T07:09:04;9.07;;;7.65;;
2638;SDS011;1329;51.384;7.122;2022-08-21T07:11:36;8.27;;;7.53;;
2638;SDS011;1329;51.384;7.122;2022-08-21T07:14:04;8.60;;;7.50;;
2638;SDS011;1329;51.384;7.122;2022-08-21T07:16:34;10.10;;;7.72;;
2638;SDS011;1329;51.384;7.122;2022-08-21T07:19:02;8.27;;;6.55;;
2638;SDS011;1329;51.384;7.122;2022-08-21T07:21:29;9.05;;;6.03;;
2638;SDS011;1329;51.384;7.122;2022-08-21T07:23:56;7.60;;;5.10;;
2638;SDS011;1329;51.384;7.122;2022-08-21T07:26:24;6.07;;;4.47;;
2638;SDS011;1329;51.384;7.122;2022-08-21T07:28:53;5.72;;;4.43;;
2638;SDS011;1329;51.384;7.122;2022-08-21T07:31:22;7.55;;;4.32;;
2638;SDS011;1329;51.384;7.122;2022-08-21T07:33:52;4.95;;;3.78;;
2638;SDS011;1329;51.384;7.122;2022-08-21T07:36:20;8.07;;;4.05;;
2638;SDS011;1329;51.384;7.122;2022-08-21T07:38:47;4.53;;;3.33;;
2638;SDS011;1329;51.384;7.122;2022-08-21T07:41:15;5.78;;;3.25;;
2638;SDS011;1329;51.384;7.122;2022-08-21T07:43:46;5.32;;;3.47;;
2638;SDS011;1329;51.384;7.122;2022-08-21T07:46:15;5.20;;;3.55;;
2638;SDS011;1329;51.384;7.122;2022-08-21T07:48:42;5.45;;;3.42;;
2638;SDS011;1329;51.384;7.122;2022-08-21T07:51:10;4.53;;;3.13;;
2638;SDS011;1329;51.384;7.122;2022-08-21T07:53:40;6.65;;;2.90;;
2638;SDS011;1329;51.384;7.122;2022-08-21T07:56:07;4.90;;;3.17;;
2638;SDS011;1329;51.384;7.122;2022-08-21T07:58:36;4.47;;;2.65;;
2638;SDS011;1329;51.384;7.122;2022-08-21T08:01:04;4.63;;;3.00;;
2638;SDS011;1329;51.384;7.122;2022-08-21T08:03:33;3.28;;;2.40;;
2638;SDS011;1329;51.384;7.122;2022-08-21T08:06:01;4.22;;;2.60;;
2638;SDS011;1329;51.384;7.122;2022-08-21T08:08:30;3.92;;;2.30;;
2638;SDS011;1329;51.384;7.122;2022-08-21T08:10:57;7.53;;;2.53;;
2638;SDS011;1329;51.384;7.122;2022-08-21T08:13:28;4.18;;;2.38;;
2638;SDS011;1329;51.384;7.122;2022-08-21T08:15:55;3.65;;;2.40;;
2638;SDS011;1329;51.384;7.122;2022-08-21T08:18:23;4.28;;;2.55;;
2638;SDS011;1329;51.384;7.122;2022-08-21T08:20:52;4.03;;;2.63;;
2638;SDS011;1329;51.384;7.122;2022-08-21T08:23:19;7.43;;;3.45;;
2638;SDS011;1329;51.384;7.122;2022-08-21T08:25:48;5.30;;;3.00;;
2638;SDS011;1329;51.384;7.122;2022-08-21T08:28:15;3.53;;;2.60;;
2638;SDS011;1329;51.384;7.122;2022-08-21T08:30:42;4.38;;;3.00;;
2638;SDS011;1329;51.384;7.122;2022-08-21T08:33:10;5.13;;;3.20;;
2638;SDS011;1329;51.384;7.122;2022-08-21T08:35:37;4.72;;;2.95;;
2638;SDS011;1329;51.384;7.122;2022-08-21T08:38:07;3.63;;;3.22;;
2638;SDS011;1329;51.384;7.122;2022-08-21T08:40:36;6.32;;;2.92;;
2638;SDS011;1329;51.384;7.122;2022-08-21T08:43:09;5.88;;;3.13;;
2638;SDS011;1329;51.384;7.122;2022-08-21T08:45:38;6.20;;;3.50;;
2638;SDS011;1329;51.384;7.122;2022-08-21T08:48:13;4.32;;;2.97;;
2638;SDS011;1329;51.384;7.122;2022-08-21T08:50:58;4.20;;;2.80;;
2638;SDS011;1329;51.384;7.122;2022-08-21T08:53:31;4.13;;;2.85;;
2638;SDS011;1329;51.384;7.122;2022-08-21T08:56:02;3.30;;;2.53;;
2638;SDS011;1329;51.384;7.122;2022-08-21T08:58:32;4.07;;;2.70;;
2638;SDS011;1329;51.384;7.122;2022-08-21T09:01:05;4.78;;;2.65;;
2638;SDS011;1329;51.384;7.122;2022-08-21T09:03:42;3.75;;;2.75;;
2638;SDS011;1329;51.384;7.122;2022-08-21T09:06:17;7.03;;;2.72;;
2638;SDS011;1329;51.384;7.122;2022-08-21T09:08:59;5.82;;;2.67;;
2638;SDS011;1329;51.384;7.122;2022-08-21T09:11:36;3.05;;;2.40;;
2638;SDS011;1329;51.384;7.122;2022-08-21T09:14:17;2.95;;;2.60;;
2638;SDS011;1329;51.384;7.122;2022-08-21T09:16:56;3.67;;;2.45;;
2638;SDS011;1329;51.384;7.122;2022-08-21T09:19:37;4.13;;;2.70;;
2638;SDS011;1329;51.384;7.122;2022-08-21T09:22:19;3.85;;;2.50;;
2638;SDS011;1329;51.384;7.122;2022-08-21T09:25:03;4.60;;;2.58;;
2638;SDS011;1329;51.384;7.122;2022-08-21T09:27:42;4.88;;;2.28;;
2638;SDS011;1329;51.384;7.122;2022-08-21T09:30:10;3.78;;;2.22;;
2638;SDS011;1329;51.384;7.122;2022-08-21T09:32:38;3.35;;;2.03;;
2638;SDS011;1329;51.384;7.122;2022-08-21T09:35:08;3.72;;;1.98;;
2638;SDS011;1329;51.384;7.122;2022-08-21T09:37:46;3.08;;;1.75;;
2638;SDS011;1329;51.384;7.122;2022-08-21T09:40:21;5.05;;;1.95;;
2638;SDS011;1329;51.384;7.122;2022-08-21T09:42:59;3.15;;;1.77;;
2638;SDS011;1329;51.384;7.122;2022-08-21T09:45:28;3.50;;;2.28;;
2638;SDS011;1329;51.384;7.122;2022-08-21T09:47:56;3.28;;;1.80;;
2638;SDS011;1329;51.384;7.122;2022-08-21T09:50:38;3.75;;;2.08;;
2638;SDS011;1329;51.384;7.122;2022-08-21T09:53:14;4.03;;;1.73;;
2638;SDS011;1329;51.384;7.122;2022-08-21T09:55:49;3.45;;;1.70;;
2638;SDS011;1329;51.384;7.122;2022-08-21T09:58:39;2.70;;;1.52;;
2638;SDS011;1329;51.384;7.122;2022-08-21T10:01:13;3.17;;;1.58;;
2638;SDS011;1329;51.384;7.122;2022-08-21T10:03:43;2.58;;;1.65;;
2638;SDS011;1329;51.384;7.122;2022-08-21T10:06:21;2.70;;;1.50;;
2638;SDS011;1329;51.384;7.122;2022-08-21T10:09:02;2.83;;;1.70;;
2638;SDS011;1329;51.384;7.122;2022-08-21T10:11:34;3.10;;;1.55;;
2638;SDS011;1329;51.384;7.122;2022-08-21T10:14:07;3.00;;;1.63;;
2638;SDS011;1329;51.384;7.122;2022-08-21T10:16:51;2.30;;;1.52;;
2638;SDS011;1329;51.384;7.122;2022-08-21T10:19:30;2.97;;;1.40;;
2638;SDS011;1329;51.384;7.122;2022-08-21T10:22:09;3.00;;;1.42;;
2638;SDS011;1329;51.384;7.122;2022-08-21T10:24:52;2.33;;;1.42;;
2638;SDS011;1329;51.384;7.122;2022-08-21T10:27:33;2.83;;;1.42;;
2638;SDS011;1329;51.384;7.122;2022-08-21T10:30:12;2.65;;;1.60;;
2638;SDS011;1329;51.384;7.122;2022-08-21T10:32:51;2.92;;;1.67;;
2638;SDS011;1329;51.384;7.122;2022-08-21T10:35:30;3.15;;;1.40;;
2638;SDS011;1329;51.384;7.122;2022-08-21T10:38:10;1.92;;;1.50;;
2638;SDS011;1329;51.384;7.122;2022-08-21T10:41:10;2.95;;;1.40;;
2638;SDS011;1329;51.384;7.122;2022-08-21T10:43:48;2.17;;;1.30;;
2638;SDS011;1329;51.384;7.122;2022-08-21T10:46:29;1.88;;;1.20;;
2638;SDS011;1329;51.384;7.122;2022-08-21T10:49:10;2.63;;;1.33;;
2638;SDS011;1329;51.384;7.122;2022-08-21T10:51:51;2.67;;;1.30;;
2638;SDS011;1329;51.384;7.122;2022-08-21T10:54:34;3.13;;;1.58;;
2638;SDS011;1329;51.384;7.122;2022-08-21T10:57:12;3.25;;;2.03;;
2638;SDS011;1329;51.384;7.122;2022-08-21T10:59:51;2.88;;;1.52;;
2638;SDS011;1329;51.384;7.122;2022-08-21T11:02:30;1.27;;;1.05;;
2638;SDS011;1329;51.384;7.122;2022-08-21T11:05:05;3.00;;;1.27;;
2638;SDS011;1329;51.384;7.122;2022-08-21T11:07:41;2.17;;;1.35;;
2638;SDS011;1329;51.384;7.122;2022-08-21T11:10:15;2.30;;;1.40;;
2638;SDS011;1329;51.384;7.122;2022-08-21T11:12:50;1.35;;;1.10;;
2638;SDS011;1329;51.384;7.122;2022-08-21T11:15:31;2.40;;;1.35;;
2638;SDS011;1329;51.384;7.122;2022-08-21T11:20:57;1.90;;;1.30;;
2638;SDS011;1329;51.384;7.122;2022-08-21T11:23:40;1.95;;;1.40;;
2638;SDS011;1329;51.384;7.122;2022-08-21T11:26:12;2.30;;;1.02;;
2638;SDS011;1329;51.384;7.122;2022-08-21T11:28:46;2.15;;;1.20;;
2638;SDS011;1329;51.384;7.122;2022-08-21T11:31:28;2.67;;;1.30;;
2638;SDS011;1329;51.384;7.122;2022-08-21T11:34:11;2.08;;;1.20;;
2638;SDS011;1329;51.384;7.122;2022-08-21T11:36:51;1.92;;;1.30;;
2638;SDS011;1329;51.384;7.122;2022-08-21T11:39:30;1.67;;;1.10;;
2638;SDS011;1329;51.384;7.122;2022-08-21T11:42:11;2.08;;;1.10;;
2638;SDS011;1329;51.384;7.122;2022-08-21T11:44:48;1.90;;;1.20;;
2638;SDS011;1329;51.384;7.122;2022-08-21T11:47:25;2.30;;;1.20;;
2638;SDS011;1329;51.384;7.122;2022-08-21T11:50:04;2.80;;;1.33;;
2638;SDS011;1329;51.384;7.122;2022-08-21T11:52:41;2.28;;;1.15;;
2638;SDS011;1329;51.384;7.122;2022-08-21T11:55:15;1.40;;;1.00;;
2638;SDS011;1329;51.384;7.122;2022-08-21T11:57:50;1.30;;;0.93;;
2638;SDS011;1329;51.384;7.122;2022-08-21T12:00:24;1.98;;;1.20;;
2638;SDS011;1329;51.384;7.122;2022-08-21T12:02:58;3.35;;;1.17;;
2638;SDS011;1329;51.384;7.122;2022-08-21T12:05:36;2.55;;;1.42;;
2638;SDS011;1329;51.384;7.122;2022-08-21T12:08:11;2.35;;;1.17;;
2638;SDS011;1329;51.384;7.122;2022-08-21T12:10:59;2.38;;;1.13;;
2638;SDS011;1329;51.384;7.122;2022-08-21T12:13:31;3.40;;;1.50;;
2638;SDS011;1329;51.384;7.122;2022-08-21T12:16:05;1.27;;;0.90;;
2638;SDS011;1329;51.384;7.122;2022-08-21T12:18:40;1.42;;;1.10;;
2638;SDS011;1329;51.384;7.122;2022-08-21T12:21:19;2.17;;;1.05;;
2638;SDS011;1329;51.384;7.122;2022-08-21T12:23:59;1.83;;;1.00;;
2638;SDS011;1329;51.384;7.122;2022-08-21T12:26:32;1.85;;;1.13;;
2638;SDS011;1329;51.384;7.122;2022-08-21T12:29:05;1.67;;;1.10;;
2638;SDS011;1329;51.384;7.122;2022-08-21T12:31:50;1.35;;;1.00;;
2638;SDS011;1329;51.384;7.122;2022-08-21T12:34:28;1.05;;;0.82;;
2638;SDS011;1329;51.384;7.122;2022-08-21T12:37:03;1.83;;;0.88;;
2638;SDS011;1329;51.384;7.122;2022-08-21T12:39:34;1.90;;;1.00;;
2638;SDS011;1329;51.384;7.122;2022-08-21T12:42:05;1.45;;;0.90;;
2638;SDS011;1329;51.384;7.122;2022-08-21T12:44:42;2.30;;;0.90;;
2638;SDS011;1329;51.384;7.122;2022-08-21T12:47:17;2.17;;;1.00;;
2638;SDS011;1329;51.384;7.122;2022-08-21T12:49:56;1.40;;;1.02;;
2638;SDS011;1329;51.384;7.122;2022-08-21T12:52:32;1.67;;;1.15;;
2638;SDS011;1329;51.384;7.122;2022-08-21T12:55:06;1.85;;;1.17;;
2638;SDS011;1329;51.384;7.122;2022-08-21T12:57:39;1.42;;;1.20;;
2638;SDS011;1329;51.384;7.122;2022-08-21T13:00:09;2.05;;;1.20;;
2638;SDS011;1329;51.384;7.122;2022-08-21T13:02:42;2.20;;;1.10;;
2638;SDS011;1329;51.384;7.122;2022-08-21T13:05:15;3.08;;;1.30;;
2638;SDS011;1329;51.384;7.122;2022-08-21T13:07:49;1.63;;;0.93;;
2638;SDS011;1329;51.384;7.122;2022-08-21T13:10:18;1.73;;;1.20;;
2638;SDS011;1329;51.384;7.122;2022-08-21T13:12:50;2.90;;;1.25;;
2638;SDS011;1329;51.384;7.122;2022-08-21T13:15:22;2.58;;;1.00;;
2638;SDS011;1329;51.384;7.122;2022-08-21T13:17:54;1.88;;;1.13;;
2638;SDS011;1329;51.384;7.122;2022-08-21T13:20:29;2.78;;;1.00;;
2638;SDS011;1329;51.384;7.122;2022-08-21T13:22:59;3.00;;;1.23;;
2638;SDS011;1329;51.384;7.122;2022-08-21T13:25:28;1.75;;;1.08;;
2638;SDS011;1329;51.384;7.122;2022-08-21T13:28:04;0.82;;;0.70;;
2638;SDS011;1329;51.384;7.122;2022-08-21T13:30:39;2.15;;;1.10;;
2638;SDS011;1329;51.384;7.122;2022-08-21T13:33:09;1.45;;;0.80;;
2638;SDS011;1329;51.384;7.122;2022-08-21T13:35:48;2.33;;;1.02;;
2638;SDS011;1329;51.384;7.122;2022-08-21T13:38:19;1.23;;;0.80;;
2638;SDS011;1329;51.384;7.122;2022-08-21T13:40:54;1.45;;;0.90;;
2638;SDS011;1329;51.384;7.122;2022-08-21T13:43:35;1.88;;;1.08;;
2638;SDS011;1329;51.384;7.122;2022-08-21T13:46:06;1.65;;;1.00;;
2638;SDS011;1329;51.384;7.122;2022-08-21T13:48:38;1.40;;;0.90;;
2638;SDS011;1329;51.384;7.122;2022-08-21T13:51:07;1.90;;;0.90;;
2638;SDS011;1329;51.384;7.122;2022-08-21T13:53:36;1.95;;;0.88;;
2638;SDS011;1329;51.384;7.122;2022-08-21T13:56:21;2.20;;;0.98;;
2638;SDS011;1329;51.384;7.122;2022-08-21T13:58:50;1.10;;;0.90;;
2638;SDS011;1329;51.384;7.122;2022-08-21T14:01:19;1.73;;;1.00;;
2638;SDS011;1329;51.384;7.122;2022-08-21T14:03:54;1.00;;;0.70;;
2638;SDS011;1329;51.384;7.122;2022-08-21T14:06:27;2.10;;;1.10;;
2638;SDS011;1329;51.384;7.122;2022-08-21T14:09:00;1.27;;;0.80;;
2638;SDS011;1329;51.384;7.122;2022-08-21T14:11:35;1.33;;;0.73;;
2638;SDS011;1329;51.384;7.122;2022-08-21T14:14:13;1.00;;;0.73;;
2638;SDS011;1329;51.384;7.122;2022-08-21T14:16:53;1.23;;;0.80;;
2638;SDS011;1329;51.384;7.122;2022-08-21T14:19:27;1.23;;;0.85;;
2638;SDS011;1329;51.384;7.122;2022-08-21T14:25:00;0.93;;;0.80;;
2638;SDS011;1329;51.384;7.122;2022-08-21T14:27:33;1.20;;;0.68;;
2638;SDS011;1329;51.384;7.122;2022-08-21T14:30:04;1.75;;;0.93;;
2638;SDS011;1329;51.384;7.122;2022-08-21T14:32:42;2.20;;;1.15;;
2638;SDS011;1329;51.384;7.122;2022-08-21T14:35:09;1.63;;;1.00;;
2638;SDS011;1329;51.384;7.122;2022-08-21T14:37:40;1.98;;;0.90;;
2638;SDS011;1329;51.384;7.122;2022-08-21T14:40:09;1.75;;;0.80;;
2638;SDS011;1329;51.384;7.122;2022-08-21T14:42:39;2.50;;;1.30;;
2638;SDS011;1329;51.384;7.122;2022-08-21T14:45:10;1.90;;;1.10;;
2638;SDS011;1329;51.384;7.122;2022-08-21T14:47:43;1.98;;;1.20;;
2638;SDS011;1329;51.384;7.122;2022-08-21T14:50:11;1.88;;;1.00;;
2638;SDS011;1329;51.384;7.122;2022-08-21T14:52:42;1.67;;;1.08;;
2638;SDS011;1329;51.384;7.122;2022-08-21T14:55:11;1.75;;;0.93;;
2638;SDS011;1329;51.384;7.122;2022-08-21T14:57:40;1.10;;;0.80;;
2638;SDS011;1329;51.384;7.122;2022-08-21T15:00:09;2.72;;;0.93;;
2638;SDS011;1329;51.384;7.122;2022-08-21T15:02:50;1.10;;;0.80;;
2638;SDS011;1329;51.384;7.122;2022-08-21T15:05:20;2.05;;;0.90;;
2638;SDS011;1329;51.384;7.122;2022-08-21T15:07:49;1.35;;;0.75;;
2638;SDS011;1329;51.384;7.122;2022-08-21T15:10:16;1.67;;;0.82;;
2638;SDS011;1329;51.384;7.122;2022-08-21T15:12:45;1.75;;;1.00;;
2638;SDS011;1329;51.384;7.122;2022-08-21T15:15:12;2.63;;;0.98;;
2638;SDS011;1329;51.384;7.122;2022-08-21T15:17:40;1.27;;;0.95;;
2638;SDS011;1329;51.384;7.122;2022-08-21T15:20:07;1.20;;;0.80;;
2638;SDS011;1329;51.384;7.122;2022-08-21T15:22:36;1.63;;;1.10;;
2638;SDS011;1329;51.384;7.122;2022-08-21T15:25:05;0.93;;;0.90;;
2638;SDS011;1329;51.384;7.122;2022-08-21T15:27:34;1.52;;;1.00;;
2638;SDS011;1329;51.384;7.122;2022-08-21T15:30:01;2.42;;;1.25;;
2638;SDS011;1329;51.384;7.122;2022-08-21T15:32:29;1.55;;;0.80;;
2638;SDS011;1329;51.384;7.122;2022-08-21T15:34:59;2.00;;;1.30;;
2638;SDS011;1329;51.384;7.122;2022-08-21T15:37:27;1.77;;;0.80;;
2638;SDS011;1329;51.384;7.122;2022-08-21T15:39:54;2.75;;;1.00;;
2638;SDS011;1329;51.384;7.122;2022-08-21T15:42:23;1.60;;;1.17;;
2638;SDS011;1329;51.384;7.122;2022-08-21T15:44:52;1.90;;;1.00;;
2638;SDS011;1329;51.384;7.122;2022-08-21T15:47:25;1.50;;;1.00;;
2638;SDS011;1329;51.384;7.122;2022-08-21T15:49:55;2.53;;;0.90;;